RCTP/TPE METAR and TAF weather

Enter ICAO airport designator
Station Type Date Time Source
RCTP METAR 2019/04/23 04:00 UTC NOAA

RCTP 230400Z 23014KT 9999 FEW022 32/25 Q1009 NOSIG RMK A2982


Station Type Date Time Source
RCTP Decoded METAR 2019/04/23 04:00 UTC NOAA

Chiang Kai Shek, Taiwan (RCTP) 25-05N 121-13E
Apr 23, 2019 - 12:00 AM EDT / 2019.04.23 0400 UTC
Wind: from the SW (230 degrees) at 16 MPH (14 KT):0
Visibility: greater than 7 mile(s):0
Sky conditions: mostly clear
Temperature: 89 F (32 C)
Heat index: 100.6 F (38.1 C):1
Dew Point: 77 F (25 C)
Relative Humidity: 66%
Pressure (altimeter): 29.80 in. Hg (1009 hPa)
ob: RCTP 230400Z 23014KT 9999 FEW022 32/25 Q1009 NOSIG RMK A2982
cycle: 4

Station Type Date Time Source
RCTP TAF 2019/04/22 18:05 UTC NOAA

TAF RCTP 221700Z 2218/2324 24010KT 9999 FEW016 BKN032
TEMPO 2218/2223 15005KT FEW010 BKN020
TEMPO 2301/2307 25018KT
TEMPO 2309/2313 32007KT
TEMPO 2314/2320 21013KT

Example: see airport list